createdAt,value
2022-09-07T00:00:27.978Z,101486.44
2022-09-07T00:02:29.821Z,101478.50
2022-09-07T00:04:31.683Z,101466.63
2022-09-07T00:06:33.664Z,101480.47
2022-09-07T00:08:35.476Z,101480.22
2022-09-07T00:10:37.626Z,101473.03
2022-09-07T00:12:40.036Z,101473.03
2022-09-07T00:14:41.848Z,101467.97
2022-09-07T00:16:43.626Z,101476.25
2022-09-07T00:18:46.433Z,101475.41
2022-09-07T00:20:59.022Z,101478.78
2022-09-07T00:23:00.815Z,101470.13
2022-09-07T00:25:02.855Z,101468.78
2022-09-07T00:27:04.804Z,101471.81
2022-09-07T00:29:06.605Z,101473.63
2022-09-07T00:31:15.417Z,101472.28
2022-09-07T00:33:17.268Z,101476.31
2022-09-07T00:35:19.096Z,101474.50
2022-09-07T00:37:20.960Z,101463.31
2022-09-07T00:39:22.735Z,101462.59
2022-09-07T00:41:24.863Z,101473.97
2022-09-07T00:43:54.155Z,101463.47
2022-09-07T00:45:56.248Z,101462.72
2022-09-07T00:48:17.587Z,101476.75
2022-09-07T00:50:40.145Z,101475.28
2022-09-07T00:52:44.687Z,101473.06
2022-09-07T00:54:51.243Z,101479.19
2022-09-07T00:56:54.012Z,101481.72
2022-09-07T00:58:56.531Z,101479.19
2022-09-07T01:00:58.332Z,101476.25
2022-09-07T01:03:01.535Z,101477.63
2022-09-07T01:05:41.438Z,101478.47
2022-09-07T01:07:44.067Z,101480.88
2022-09-07T01:09:47.336Z,101480.69
2022-09-07T01:11:50.758Z,101483.88
2022-09-07T01:13:54.047Z,101479.72
2022-09-07T01:16:17.023Z,101484.16
2022-09-07T01:18:55.551Z,101489.34
2022-09-07T01:21:21.457Z,101489.44
2022-09-07T01:23:52.207Z,101486.63
2022-09-07T01:26:32.294Z,101483.13
2022-09-07T01:28:35.563Z,101479.34
2022-09-07T01:30:39.693Z,101483.13
2022-09-07T01:32:53.563Z,101481.03
2022-09-07T01:34:55.367Z,101478.41
2022-09-07T01:37:21.427Z,101476.56
2022-09-07T01:39:29.704Z,101468.16
2022-09-07T01:41:50.305Z,101473.63
2022-09-07T01:44:12.225Z,101466.56
2022-09-07T01:46:29.778Z,101466.97
2022-09-07T01:48:33.817Z,101473.31
2022-09-07T01:50:45.604Z,101470.25
2022-09-07T01:53:12.044Z,101467.50
2022-09-07T01:55:18.983Z,101470.03
2022-09-07T01:57:32.259Z,101466.75
2022-09-07T01:59:48.622Z,101466.00
2022-09-07T02:02:04.327Z,101468.75
2022-09-07T02:04:11.450Z,101463.81
2022-09-07T02:06:48.704Z,101462.31
2022-09-07T02:09:05.031Z,101457.78
2022-09-07T02:11:28.825Z,101468.31
2022-09-07T02:13:40.376Z,101461.69
2022-09-07T02:15:48.048Z,101461.97
2022-09-07T02:17:56.127Z,101464.38
2022-09-07T02:20:06.474Z,101463.66
2022-09-07T02:22:13.719Z,101454.91
2022-09-07T02:24:25.274Z,101457.53
2022-09-07T02:26:28.894Z,101456.69
2022-09-07T02:28:33.568Z,101454.91
2022-09-07T02:30:35.475Z,101458.06
2022-09-07T02:32:37.518Z,101438.72
2022-09-07T02:34:39.403Z,101461.19
2022-09-07T02:36:46.000Z,101449.16
2022-09-07T02:38:47.835Z,101450.75
2022-09-07T02:40:51.640Z,101461.69
2022-09-07T02:42:53.545Z,101454.75
2022-09-07T02:44:55.720Z,101456.44
2022-09-07T02:47:35.864Z,101455.13
2022-09-07T02:50:16.212Z,101451.00
2022-09-07T02:52:36.024Z,101453.75
2022-09-07T02:55:07.335Z,101445.88
2022-09-07T02:57:16.015Z,101451.41
2022-09-07T02:59:46.708Z,101452.91
2022-09-07T03:02:02.486Z,101452.16
2022-09-07T03:04:19.391Z,101447.75
2022-09-07T03:06:30.813Z,101459.72
2022-09-07T03:08:38.420Z,101461.31
2022-09-07T03:10:41.459Z,101450.56
2022-09-07T03:12:46.695Z,101450.56
2022-09-07T03:14:48.523Z,101458.59
2022-09-07T03:16:53.708Z,101452.84
2022-09-07T03:18:55.528Z,101450.13
2022-09-07T03:20:57.611Z,101442.94
2022-09-07T03:22:59.475Z,101444.31
2022-09-07T03:25:01.361Z,101451.81
2022-09-07T03:27:03.240Z,101446.53
2022-09-07T03:29:05.106Z,101448.81
2022-09-07T03:31:06.893Z,101458.72
2022-09-07T03:33:08.724Z,101448.81
2022-09-07T03:35:10.722Z,101456.19
2022-09-07T03:37:12.506Z,101449.66
2022-09-07T03:39:14.318Z,101447.88
2022-09-07T03:41:16.199Z,101461.72
2022-09-07T03:43:17.993Z,101456.09
2022-09-07T03:45:19.887Z,101461.25
2022-09-07T03:47:21.660Z,101457.78
2022-09-07T03:49:23.499Z,101461.16
2022-09-07T03:51:25.582Z,101455.06
2022-09-07T03:53:27.865Z,101454.16
2022-09-07T03:55:29.675Z,101460.72
2022-09-07T03:57:31.576Z,101456.97
2022-09-07T03:59:33.466Z,101450.78
2022-09-07T04:01:35.321Z,101461.06
2022-09-07T04:03:38.173Z,101456.41
2022-09-07T04:05:39.979Z,101461.94
2022-09-07T04:07:41.742Z,101465.88
2022-09-07T04:09:43.615Z,101464.84
2022-09-07T04:11:45.415Z,101463.91
2022-09-07T04:13:47.250Z,101461.66
2022-09-07T04:15:53.366Z,101461.94
2022-09-07T04:17:55.736Z,101457.41
2022-09-07T04:19:57.506Z,101464.19
2022-09-07T04:21:59.439Z,101463.88
2022-09-07T04:24:01.363Z,101470.19
2022-09-07T04:26:03.176Z,101465.34
2022-09-07T04:28:05.158Z,101471.81
2022-09-07T04:30:07.542Z,101468.41
2022-09-07T04:32:12.388Z,101465.59
2022-09-07T04:34:16.911Z,101459.94
2022-09-07T04:36:19.636Z,101459.88
2022-09-07T04:38:21.448Z,101464.78
2022-09-07T04:40:23.244Z,101463.72
2022-09-07T04:42:25.024Z,101456.94
2022-09-07T04:44:26.842Z,101462.47
2022-09-07T04:46:33.362Z,101449.84
2022-09-07T04:48:35.247Z,101461.69
2022-09-07T04:50:37.006Z,101460.78
2022-09-07T04:52:38.825Z,101462.22
2022-09-07T04:54:40.630Z,101462.13
2022-09-07T04:56:42.389Z,101466.41
2022-09-07T04:58:45.438Z,101460.22
2022-09-07T05:00:47.294Z,101458.16
2022-09-07T05:02:49.471Z,101447.94
2022-09-07T05:04:51.417Z,101454.22
2022-09-07T05:06:54.450Z,101451.31
2022-09-07T05:08:58.257Z,101440.50
2022-09-07T05:11:00.015Z,101450.94
2022-09-07T05:13:01.888Z,101443.69
2022-09-07T05:15:04.824Z,101442.44
2022-09-07T05:17:06.591Z,101445.00
2022-09-07T05:19:12.242Z,101439.78
2022-09-07T05:21:16.432Z,101454.91
2022-09-07T05:23:18.316Z,101449.59
2022-09-07T05:25:20.171Z,101447.31
2022-09-07T05:27:21.963Z,101443.53
2022-09-07T05:31:45.801Z,101447.16
2022-09-07T05:36:11.458Z,101442.72
2022-09-07T05:38:13.222Z,101436.63
2022-09-07T05:40:15.283Z,101431.44
2022-09-07T05:42:17.099Z,101429.31
2022-09-07T05:46:40.733Z,101421.75
2022-09-07T05:48:44.277Z,101414.88
2022-09-07T05:50:52.999Z,101413.88
2022-09-07T05:52:54.816Z,101409.53
2022-09-07T05:55:07.459Z,101413.72
2022-09-07T05:57:18.379Z,101409.88
2022-09-07T05:59:20.160Z,101411.69
2022-09-07T06:01:21.936Z,101411.81
2022-09-07T06:03:23.851Z,101405.19
2022-09-07T06:05:25.738Z,101402.00
2022-09-07T06:07:27.498Z,101404.88
2022-09-07T06:09:30.726Z,101419.09
2022-09-07T06:11:32.662Z,101431.22
2022-09-07T06:13:34.923Z,101422.91
2022-09-07T06:15:36.747Z,101427.97
2022-09-07T06:17:38.710Z,101433.31
2022-09-07T06:19:40.501Z,101442.84
2022-09-07T06:21:42.277Z,101440.31
2022-09-07T06:23:45.064Z,101430.34
2022-09-07T06:25:50.420Z,101437.47
2022-09-07T06:27:52.186Z,101439.69
2022-09-07T06:29:54.282Z,101438.00
2022-09-07T06:34:17.866Z,101437.66
2022-09-07T06:36:24.227Z,101445.34
2022-09-07T06:38:31.813Z,101445.34
2022-09-07T06:40:34.136Z,101441.81
2022-09-07T06:42:36.139Z,101441.00
2022-09-07T06:44:37.921Z,101444.78
2022-09-07T06:49:01.479Z,101445.34
2022-09-07T06:51:20.386Z,101445.03
2022-09-07T06:53:39.518Z,101451.41
2022-09-07T06:55:45.179Z,101440.06
2022-09-07T06:57:47.044Z,101444.41
2022-09-07T06:59:48.818Z,101451.94
2022-09-07T07:01:50.560Z,101446.53
2022-09-07T07:03:54.094Z,101452.22
2022-09-07T07:05:57.606Z,101455.56
2022-09-07T07:07:59.286Z,101447.03
2022-09-07T07:10:01.059Z,101443.91
2022-09-07T07:12:03.109Z,101441.53
2022-09-07T07:14:04.961Z,101441.25
2022-09-07T07:16:17.123Z,101444.63
2022-09-07T07:18:21.382Z,101443.88
2022-09-07T07:20:23.324Z,101436.94
2022-09-07T07:24:46.912Z,101434.16
2022-09-07T07:26:48.766Z,101438.25
2022-09-07T07:29:07.099Z,101436.13
2022-09-07T07:31:13.012Z,101430.78
2022-09-07T07:33:15.186Z,101431.88
2022-09-07T07:35:17.058Z,101442.44
2022-09-07T07:37:18.779Z,101444.59
2022-09-07T07:42:00.309Z,101433.84
2022-09-07T07:44:04.125Z,101392.72
2022-09-07T07:46:06.787Z,101429.28
2022-09-07T07:48:11.963Z,101429.66
2022-09-07T07:54:59.578Z,101428.22
2022-09-07T07:57:01.334Z,101434.22
2022-09-07T07:59:03.131Z,101431.78
2022-09-07T08:01:13.069Z,101433.53
2022-09-07T08:03:14.925Z,101420.34
2022-09-07T08:05:16.746Z,101417.81
2022-09-07T08:07:19.504Z,101418.59
2022-09-07T08:09:21.269Z,101421.28
2022-09-07T08:11:22.999Z,101415.09
2022-09-07T08:13:24.735Z,101411.34
2022-09-07T08:15:26.501Z,101402.44
2022-09-07T08:17:28.260Z,101407.69
2022-09-07T08:19:30.021Z,101416.38
2022-09-07T08:21:31.780Z,101401.75
2022-09-07T08:23:33.904Z,101410.31
2022-09-07T08:25:36.007Z,101398.66
2022-09-07T08:27:37.744Z,101400.84
2022-09-07T08:29:39.500Z,101401.13
2022-09-07T08:31:41.305Z,101398.06
2022-09-07T08:33:43.381Z,101396.78
2022-09-07T08:35:56.266Z,101389.38
2022-09-07T08:37:57.987Z,101391.41
2022-09-07T08:39:59.763Z,101390.88
2022-09-07T08:42:36.720Z,101401.13
2022-09-07T08:45:04.554Z,101400.28
2022-09-07T08:47:41.769Z,101395.31
2022-09-07T08:49:49.942Z,101391.34
2022-09-07T08:51:59.147Z,101399.28
2022-09-07T08:54:01.590Z,101394.38
2022-09-07T08:56:11.364Z,101398.41
2022-09-07T08:58:32.602Z,101393.59
2022-09-07T09:00:36.914Z,101400.81
2022-09-07T09:02:43.939Z,101394.22
2022-09-07T09:07:25.810Z,101387.41
2022-09-07T09:09:55.431Z,101379.22
2022-09-07T09:12:12.234Z,101376.31
2022-09-07T09:16:55.100Z,101377.03
2022-09-07T09:19:39.587Z,101379.06
2022-09-07T09:21:42.223Z,101363.78
2022-09-07T09:23:46.503Z,101360.25
2022-09-07T09:26:02.367Z,101367.69
2022-09-07T09:28:04.111Z,101364.91
2022-09-07T09:30:18.723Z,101371.47
2022-09-07T09:32:36.579Z,101360.81
2022-09-07T09:34:38.381Z,101370.19
2022-09-07T09:36:48.443Z,101357.72
2022-09-07T09:38:50.218Z,101359.66
2022-09-07T09:40:53.370Z,101364.75
2022-09-07T09:43:24.799Z,101343.69
2022-09-07T09:45:29.951Z,101350.06
2022-09-07T09:47:35.150Z,101351.22
2022-09-07T09:49:40.121Z,101352.69
2022-09-07T09:54:24.643Z,101353.91
2022-09-07T09:56:41.002Z,101333.41
2022-09-07T10:01:27.253Z,101334.72
2022-09-07T10:05:54.010Z,101335.84
2022-09-07T10:07:55.830Z,101333.59
2022-09-07T10:09:57.722Z,101326.56
2022-09-07T10:12:08.828Z,101326.03
2022-09-07T10:14:34.398Z,101314.13
2022-09-07T10:16:42.900Z,101309.41
2022-09-07T10:18:58.958Z,101311.72
2022-09-07T10:21:18.833Z,101314.75
2022-09-07T10:23:24.433Z,101312.06
2022-09-07T10:25:40.418Z,101311.06
2022-09-07T10:27:43.385Z,101298.56
2022-09-07T10:29:45.180Z,101307.44
2022-09-07T10:32:24.933Z,101302.63
2022-09-07T10:34:46.321Z,101303.59
2022-09-07T10:37:03.915Z,101301.59
2022-09-07T10:39:15.098Z,101302.22
2022-09-07T10:41:20.422Z,101290.22
2022-09-07T10:43:48.302Z,101302.34
2022-09-07T10:46:15.360Z,101288.47
2022-09-07T10:49:19.448Z,101287.47
2022-09-07T10:51:33.205Z,101289.53
2022-09-07T10:53:42.177Z,101288.13
2022-09-07T10:56:00.013Z,101295.16
2022-09-07T10:59:01.452Z,101293.94
2022-09-07T11:01:28.326Z,101296.19
2022-09-07T11:03:56.036Z,101293.69
2022-09-07T11:06:30.431Z,101291.22
2022-09-07T11:11:12.319Z,101281.38
2022-09-07T11:13:21.080Z,101276.00
2022-09-07T11:15:50.682Z,101289.25
2022-09-07T11:17:57.855Z,101279.59
2022-09-07T11:20:18.191Z,101276.97
2022-09-07T11:22:22.536Z,101279.59
2022-09-07T11:24:31.446Z,101274.44
2022-09-07T11:26:50.784Z,101275.47
2022-09-07T11:31:46.188Z,101256.16
2022-09-07T11:36:21.617Z,101264.66
2022-09-07T11:38:29.665Z,101256.44
2022-09-07T11:40:35.330Z,101258.53
2022-09-07T11:42:52.669Z,101259.63
2022-09-07T11:45:22.182Z,101253.50
2022-09-07T11:47:59.411Z,101259.50
2022-09-07T11:50:01.303Z,101245.59
2022-09-07T11:52:08.489Z,101256.31
2022-09-07T11:54:42.168Z,101245.03
2022-09-07T11:56:49.389Z,101249.63
2022-09-07T11:59:03.233Z,101250.22
2022-09-07T12:01:27.304Z,101245.34
2022-09-07T12:03:40.940Z,101240.47
2022-09-07T12:06:00.377Z,101243.03
2022-09-07T12:08:20.226Z,101241.97
2022-09-07T12:10:42.649Z,101234.22
2022-09-07T12:12:44.317Z,101243.75
2022-09-07T12:15:03.544Z,101241.72
2022-09-07T12:17:13.653Z,101237.06
2022-09-07T12:19:15.523Z,101239.31
2022-09-07T12:21:52.998Z,101237.16
2022-09-07T12:23:54.839Z,101234.56
2022-09-07T12:26:34.901Z,101229.00
2022-09-07T12:28:56.593Z,101226.09
2022-09-07T12:31:03.774Z,101210.03
2022-09-07T12:33:26.989Z,101218.31
2022-09-07T12:35:28.753Z,101210.75
2022-09-07T12:37:36.966Z,101205.47
2022-09-07T12:39:38.798Z,101207.34
2022-09-07T12:41:44.645Z,101201.50
2022-09-07T12:43:48.412Z,101205.72
2022-09-07T12:45:52.328Z,101192.03
2022-09-07T12:47:59.676Z,101204.34
2022-09-07T12:50:28.481Z,101196.56
2022-09-07T12:52:42.739Z,101208.63
2022-09-07T12:55:10.007Z,101216.84
2022-09-07T12:57:31.837Z,101213.84
2022-09-07T12:59:57.771Z,101215.25
2022-09-07T13:02:41.769Z,101211.25
2022-09-07T13:05:11.800Z,101217.34
2022-09-07T13:07:25.391Z,101211.22
2022-09-07T13:09:35.481Z,101206.75
2022-09-07T13:11:39.199Z,101207.06
2022-09-07T13:16:05.935Z,101193.09
2022-09-07T13:18:30.642Z,101194.94
2022-09-07T13:20:37.534Z,101187.50
2022-09-07T13:22:40.934Z,101192.66
2022-09-07T13:24:50.387Z,101184.81
2022-09-07T13:26:53.987Z,101184.44
2022-09-07T13:29:03.991Z,101172.88
2022-09-07T13:31:39.311Z,101179.81
2022-09-07T13:33:49.905Z,101166.16
2022-09-07T13:36:03.014Z,101164.34
2022-09-07T13:38:05.324Z,101161.53
2022-09-07T13:40:11.692Z,101150.56
2022-09-07T13:42:19.702Z,101167.28
2022-09-07T13:44:32.729Z,101162.63
2022-09-07T13:46:53.398Z,101167.47
2022-09-07T13:49:06.119Z,101160.69
2022-09-07T13:51:34.403Z,101170.75
2022-09-07T13:53:57.772Z,101167.81
2022-09-07T13:56:08.315Z,101164.47
2022-09-07T13:58:19.611Z,101164.47
2022-09-07T14:00:21.420Z,101162.00
2022-09-07T14:02:29.564Z,101158.28
2022-09-07T14:04:44.360Z,101159.53
2022-09-07T14:06:46.120Z,101165.78
2022-09-07T14:08:50.243Z,101149.25
2022-09-07T14:10:52.068Z,101158.53
2022-09-07T14:13:12.150Z,101157.03
2022-09-07T14:15:25.828Z,101156.09
2022-09-07T14:17:27.946Z,101154.06
2022-09-07T14:20:02.367Z,101153.53
2022-09-07T14:22:13.549Z,101146.28
2022-09-07T14:24:24.624Z,101145.13
2022-09-07T14:26:26.455Z,101145.16
2022-09-07T14:28:30.863Z,101146.25
2022-09-07T14:30:33.434Z,101143.31
2022-09-07T14:32:35.957Z,101136.66
2022-09-07T14:34:38.212Z,101134.78
2022-09-07T14:36:45.395Z,101138.09
2022-09-07T14:39:05.240Z,101136.75
2022-09-07T14:41:11.978Z,101140.06
2022-09-07T14:43:30.630Z,101132.25
2022-09-07T14:45:33.998Z,101132.63
2022-09-07T14:47:35.983Z,101128.91
2022-09-07T14:49:37.907Z,101126.31
2022-09-07T14:51:44.553Z,101123.72
2022-09-07T14:53:55.160Z,101116.50
2022-09-07T14:56:10.045Z,101117.78
2022-09-07T14:58:14.622Z,101122.00
2022-09-07T15:00:31.472Z,101110.66
2022-09-07T15:02:37.091Z,101108.69
2022-09-07T15:04:39.025Z,101113.06
2022-09-07T15:09:05.736Z,101109.56
2022-09-07T15:13:36.142Z,101108.38
2022-09-07T15:15:38.653Z,101100.63
2022-09-07T15:17:43.961Z,101106.47
2022-09-07T15:19:46.175Z,101099.44
2022-09-07T15:21:48.011Z,101103.31
2022-09-07T15:23:54.460Z,101102.81
2022-09-07T15:25:56.343Z,101102.63
2022-09-07T15:27:58.641Z,101105.16
2022-09-07T15:30:00.400Z,101107.09
2022-09-07T15:32:04.869Z,101099.66
2022-09-07T15:34:10.349Z,101099.50
2022-09-07T15:36:14.098Z,101088.84
2022-09-07T15:41:22.021Z,101091.03
2022-09-07T15:43:21.469Z,101090.13
2022-09-07T15:45:32.746Z,101082.97
2022-09-07T15:47:51.995Z,101095.44
2022-09-07T15:49:54.858Z,101089.41
2022-09-07T15:52:11.748Z,101087.16
2022-09-07T15:54:15.914Z,101082.97
2022-09-07T15:56:20.090Z,101085.03
2022-09-07T15:58:22.283Z,101090.22
2022-09-07T16:00:24.287Z,101083.47
2022-09-07T16:04:48.286Z,101088.56
2022-09-07T16:06:50.097Z,101084.88
2022-09-07T16:08:52.410Z,101076.34
2022-09-07T16:10:55.892Z,101080.97
2022-09-07T16:13:16.768Z,101078.97
2022-09-07T16:15:18.815Z,101083.66
2022-09-07T16:17:34.722Z,101079.13
2022-09-07T16:19:41.108Z,101077.94
2022-09-07T16:21:43.047Z,101071.44
2022-09-07T16:23:48.051Z,101060.66
2022-09-07T16:26:01.423Z,101056.41
2022-09-07T16:28:05.808Z,101065.31
2022-09-07T16:30:08.359Z,101068.00
2022-09-07T16:34:32.885Z,101063.66
2022-09-07T16:36:34.663Z,101061.16
2022-09-07T16:38:44.445Z,101057.59
2022-09-07T16:40:46.874Z,101070.38
2022-09-07T16:42:48.651Z,101064.63
2022-09-07T16:44:52.182Z,101067.69
2022-09-07T16:46:54.180Z,101055.81
2022-09-07T16:48:55.968Z,101059.72
2022-09-07T16:51:01.910Z,101058.63
2022-09-07T16:53:04.207Z,101064.03
2022-09-07T16:55:06.129Z,101058.78
2022-09-07T16:57:07.916Z,101062.41
2022-09-07T16:59:12.559Z,101058.81
2022-09-07T17:01:16.891Z,101059.56
2022-09-07T17:03:18.648Z,101053.31
2022-09-07T17:05:21.853Z,101059.41
2022-09-07T17:07:23.657Z,101059.22
2022-09-07T17:09:25.461Z,101049.63
2022-09-07T17:11:30.656Z,101060.97
2022-09-07T17:13:33.685Z,101052.44
2022-09-07T17:15:36.106Z,101055.56
2022-09-07T17:17:37.906Z,101045.19
2022-09-07T17:19:40.985Z,101045.63
2022-09-07T17:21:42.927Z,101044.22
2022-09-07T17:23:53.994Z,101048.63
2022-09-07T17:26:08.320Z,101032.44
2022-09-07T17:28:10.052Z,101048.22
2022-09-07T17:30:12.452Z,101052.47
2022-09-07T17:32:29.627Z,101046.94
2022-09-07T17:34:31.584Z,101041.38
2022-09-07T17:36:33.401Z,101054.31
2022-09-07T17:40:57.550Z,101058.63
2022-09-07T17:45:21.023Z,101065.38
2022-09-07T17:47:22.895Z,101066.22
2022-09-07T17:49:24.657Z,101069.72
2022-09-07T17:51:28.905Z,101073.91
2022-09-07T17:53:30.708Z,101076.25
2022-09-07T17:55:32.491Z,101070.09
2022-09-07T17:57:34.219Z,101074.59
2022-09-07T18:01:58.073Z,101071.16
2022-09-07T18:03:59.833Z,101067.47
2022-09-07T18:06:02.070Z,101065.47
2022-09-07T18:08:03.954Z,101070.94
2022-09-07T18:10:06.052Z,101060.22
2022-09-07T18:12:07.935Z,101070.06
2022-09-07T18:14:09.728Z,101067.22
2022-09-07T18:16:29.663Z,101061.69
2022-09-07T18:18:31.477Z,101062.50
2022-09-07T18:20:34.460Z,101056.25
2022-09-07T18:22:36.321Z,101074.41
2022-09-07T18:24:38.112Z,101077.75
2022-09-07T18:26:39.874Z,101072.34
2022-09-07T18:31:08.155Z,101074.28
2022-09-07T18:33:11.605Z,101069.06
2022-09-07T18:35:13.464Z,101072.16
2022-09-07T18:37:15.231Z,101075.38
2022-09-07T18:39:17.410Z,101073.63
2022-09-07T18:41:19.867Z,101079.59
2022-09-07T18:43:21.584Z,101070.13
2022-09-07T18:45:30.455Z,101086.81
2022-09-07T18:47:32.206Z,101079.53
2022-09-07T18:49:37.745Z,101067.28
2022-09-07T18:54:01.307Z,101080.59
2022-09-07T18:56:08.097Z,101084.72
2022-09-07T18:58:09.892Z,101090.03
2022-09-07T19:00:12.889Z,101096.34
2022-09-07T19:02:14.753Z,101092.25
2022-09-07T19:04:16.637Z,101095.75
2022-09-07T19:06:18.432Z,101091.09
2022-09-07T19:08:20.197Z,101094.22
2022-09-07T19:10:22.012Z,101081.44
2022-09-07T19:12:23.924Z,101093.44
2022-09-07T19:14:27.434Z,101078.94
2022-09-07T19:16:29.325Z,101093.44
2022-09-07T19:18:36.166Z,101085.84
2022-09-07T19:20:38.154Z,101094.28
2022-09-07T19:22:39.935Z,101084.53
2022-09-07T19:24:41.668Z,101071.84
2022-09-07T19:26:47.960Z,101094.50
2022-09-07T19:28:54.311Z,101083.63
2022-09-07T19:31:01.223Z,101086.09
2022-09-07T19:33:04.502Z,101084.44
2022-09-07T19:35:06.833Z,101085.97
2022-09-07T19:37:10.620Z,101086.09
2022-09-07T19:39:12.418Z,101083.06
2022-09-07T19:41:14.365Z,101080.25
2022-09-07T19:43:16.218Z,101071.28
2022-09-07T19:45:17.947Z,101068.09
2022-09-07T19:47:20.413Z,101077.09
2022-09-07T19:49:22.360Z,101076.41
2022-09-07T19:51:24.114Z,101075.88
2022-09-07T19:53:25.865Z,101071.25
2022-09-07T19:55:27.599Z,101078.97
2022-09-07T19:57:29.789Z,101074.25
2022-09-07T19:59:33.951Z,101075.53
2022-09-07T20:01:36.398Z,101071.59
2022-09-07T20:03:39.157Z,101068.94
2022-09-07T20:05:41.236Z,101069.81
2022-09-07T20:07:43.310Z,101076.75
2022-09-07T20:09:45.067Z,101076.50
2022-09-07T20:11:47.697Z,101069.97
2022-09-07T20:13:49.609Z,101074.63
2022-09-07T20:15:51.437Z,101060.88
2022-09-07T20:17:53.191Z,101061.91
2022-09-07T20:19:54.918Z,101061.72
2022-09-07T20:21:56.692Z,101053.63
2022-09-07T20:23:58.421Z,101045.66
2022-09-07T20:26:02.608Z,101058.16
2022-09-07T20:28:04.339Z,101055.50
2022-09-07T20:30:06.739Z,101058.75
2022-09-07T20:32:08.529Z,101056.94
2022-09-07T20:34:11.125Z,101056.78
2022-09-07T20:36:17.990Z,101065.31
2022-09-07T20:38:20.038Z,101066.63
2022-09-07T20:40:21.846Z,101077.28
2022-09-07T20:42:23.629Z,101088.88
2022-09-07T20:44:25.423Z,101096.31
2022-09-07T20:46:28.665Z,101096.88
2022-09-07T20:48:30.625Z,101095.38
2022-09-07T20:50:32.348Z,101099.59
2022-09-07T20:52:34.071Z,101093.56
2022-09-07T20:54:35.843Z,101087.31
2022-09-07T20:56:37.713Z,101082.84
2022-09-07T20:58:40.265Z,101084.78
2022-09-07T21:00:42.079Z,101071.38
2022-09-07T21:02:43.898Z,101066.06
2022-09-07T21:04:45.651Z,101072.94
2022-09-07T21:06:47.430Z,101078.25
2022-09-07T21:08:50.323Z,101080.31
2022-09-07T21:10:52.095Z,101081.16
2022-09-07T21:12:54.589Z,101077.81
2022-09-07T21:14:56.383Z,101070.97
2022-09-07T21:16:58.111Z,101069.56
2022-09-07T21:19:01.213Z,101070.13
2022-09-07T21:21:19.386Z,101064.00
2022-09-07T21:23:22.943Z,101066.66
2022-09-07T21:25:24.774Z,101064.97
2022-09-07T21:27:26.536Z,101073.06
2022-09-07T21:29:28.277Z,101066.91
2022-09-07T21:31:31.377Z,101074.03
2022-09-07T21:33:35.258Z,101078.38
2022-09-07T21:35:37.006Z,101080.19
2022-09-07T21:37:38.780Z,101085.94
2022-09-07T21:39:40.580Z,101086.34
2022-09-07T21:41:43.324Z,101090.13
2022-09-07T21:43:45.475Z,101089.00
2022-09-07T21:45:47.212Z,101082.00
2022-09-07T21:47:48.966Z,101083.84
2022-09-07T21:49:51.287Z,101092.22
2022-09-07T21:51:53.019Z,101089.16
2022-09-07T21:53:56.658Z,101082.03
2022-09-07T21:56:03.685Z,101089.41
2022-09-07T21:58:05.463Z,101088.19
2022-09-07T22:00:08.082Z,101094.88
2022-09-07T22:02:09.859Z,101093.19
2022-09-07T22:04:11.633Z,101087.75
2022-09-07T22:06:14.291Z,101088.31
2022-09-07T22:08:16.590Z,101090.25
2022-09-07T22:10:18.405Z,101087.88
2022-09-07T22:12:20.154Z,101094.16
2022-09-07T22:14:22.024Z,101091.25
2022-09-07T22:16:24.469Z,101089.28
2022-09-07T22:18:26.270Z,101080.63
2022-09-07T22:20:28.029Z,101080.31
2022-09-07T22:22:29.770Z,101081.28
2022-09-07T22:24:31.544Z,101079.03
2022-09-07T22:26:35.869Z,101074.66
2022-09-07T22:28:38.844Z,101085.00
2022-09-07T22:30:40.581Z,101083.34
2022-09-07T22:32:50.089Z,101064.50
2022-09-07T22:34:51.856Z,101085.03
2022-09-07T22:36:53.583Z,101077.13
2022-09-07T22:38:57.946Z,101070.00
2022-09-07T22:41:06.837Z,101081.72
2022-09-07T22:43:08.606Z,101080.75
2022-09-07T22:45:10.584Z,101081.28
2022-09-07T22:47:12.345Z,101073.47
2022-09-07T22:49:16.193Z,101063.16
2022-09-07T22:51:17.964Z,101074.47
2022-09-07T22:53:19.736Z,101072.34
2022-09-07T22:55:21.517Z,101070.81
2022-09-07T22:57:23.256Z,101071.09
2022-09-07T22:59:25.012Z,101069.81
2022-09-07T23:01:29.093Z,101067.03
2022-09-07T23:03:32.507Z,101063.00
2022-09-07T23:05:37.913Z,101066.50
2022-09-07T23:07:39.675Z,101057.81
2022-09-07T23:09:41.410Z,101061.31
2022-09-07T23:11:44.151Z,101010.22
2022-09-07T23:13:46.003Z,101058.94
2022-09-07T23:15:48.791Z,101052.66
2022-09-07T23:17:51.499Z,101056.41
2022-09-07T23:19:53.255Z,101061.88
2022-09-07T23:21:55.063Z,101068.00
2022-09-07T23:24:04.516Z,101049.03
2022-09-07T23:26:06.639Z,101053.50
2022-09-07T23:28:11.906Z,101054.63
2022-09-07T23:30:13.799Z,101057.41
2022-09-07T23:32:15.601Z,101061.34
2022-09-07T23:34:17.450Z,101061.91
2022-09-07T23:36:19.891Z,101047.38
2022-09-07T23:38:21.671Z,101061.78
2022-09-07T23:40:23.556Z,101061.38
2022-09-07T23:42:25.290Z,101051.72
2022-09-07T23:44:27.064Z,101052.56
2022-09-07T23:46:28.867Z,101045.84
2022-09-07T23:48:30.982Z,101053.25
2022-09-07T23:50:32.710Z,101049.22
2022-09-07T23:52:34.729Z,101054.09
2022-09-07T23:54:36.514Z,101049.47
2022-09-07T23:56:38.241Z,101047.53
2022-09-07T23:58:39.966Z,101048.78
